Moose, WY (83012)

12:11 PM MDT on April 27, 2017 (GMT -0600)
Craighead Beringia South | | Change Station
Active Advisory: Winter Weather Statement Active Notice: Public Information Statement

Elev 6654 ft 43.62 °N, 110.62 °W | Updated 27 seconds ago

Overcast
Overcast
37.5 °F
Feels Like 38 °F
N
0.0
Wind Variable Wind from SSW
Gusts 0.0 mph

Today
High -- | Low -- °F
--% Chance of Precip.
Yesterday
High -- | Low -- °F
Precip. -- in
Pressure 29.67 in
Visibility 10.0 miles
Clouds Few 3000 ft
Scattered Clouds 3500 ft
Mostly Cloudy 4000 ft
Windchill 38 °F
Dew Point 28 °F
Humidity 68%
Rainfall 0.00 in
Snow Depth Not available.
6:20 AM 8:21 PM
New Moon, 2% visible
METAR KJAC 271751Z 17008KT 10SM VCSH FEW030 SCT035 BKN040 02/M03 A2967
Pressure 29.67 in
Visibility 10.0 miles
Clouds Few 3000 ft
Scattered Clouds 3500 ft
Mostly Cloudy 4000 ft
Windchill 38 °F
Dew Point 28 °F
Humidity 68%
Rainfall 0.00 in
Snow Depth Not available.
6:20 AM 8:21 PM
New Moon, 2% visible
METAR KJAC 271751Z 17008KT 10SM VCSH FEW030 SCT035 BKN040 02/M03 A2967

Get Your Daily Forecast Email!

Thanks for signing up!

Be on the lookout for a verification email in your inbox.

You'll start receiving severe weather alerts in your inbox..

×

10-Day Weather Forecast

Almanac

Astronomy

Apr. 27, 2017 Rise Set
Actual Time
Civil Twilight
Nautical Twilight
Astronomical Twilight
Moon
Length of Visible Light
Length of Day
Tomorrow will be .
, % of the Moon is Illuminated

Today's Extremes

State Highs State Lows

Community

WunderPhotos

WunderBlog® & News

Nearby

Air Quality

  Air Quality AQ Index Pollutant
Not available.

Snow Depth

Station Depth Elevation

Earthquake Activity

City Distance Mag. Time & Date
Minimum magnitude displayed is 2.5.

Coastal Water Temperatures

Place Temperature

Stations

Nearby Weather Stations

Station Location Temp. Windchill Dew Point Humidity Wind Precip. Elev Updated Type
                   

Watches & Warnings

Winter Weather Statement
Issued: 12:06 PM MDT Apr. 27, 2017 – National Weather Service

... Winter Weather Advisory will expire at noon MDT today...

The snowfall over far western Wyoming has diminished to more
localized snow showers that will continue through the rest of the
afternoon. Therefore the Winter Weather Advisory for the Teton and
Gros ventre ranges has been allowed to expire. Snowfall over the
area overnight last night and this morning has ranged from 3 to 11
inches with local amounts as much as 17 inches.